sensor_id;sensor_type;location;lat;lon;timestamp;temperature;humidity
8539;DHT22;4307;53.868;11.680;2023-03-23T00:01:29;12.20;99.90
8539;DHT22;4307;53.868;11.680;2023-03-23T00:03:58;12.20;99.90
8539;DHT22;4307;53.868;11.680;2023-03-23T00:06:27;12.10;99.90
8539;DHT22;4307;53.868;11.680;2023-03-23T00:09:00;12.10;99.90
8539;DHT22;4307;53.868;11.680;2023-03-23T00:11:30;12.00;99.90
8539;DHT22;4307;53.868;11.680;2023-03-23T00:13:58;12.00;99.90
8539;DHT22;4307;53.868;11.680;2023-03-23T00:16:28;12.00;99.90
8539;DHT22;4307;53.868;11.680;2023-03-23T00:18:57;11.90;99.90
8539;DHT22;4307;53.868;11.680;2023-03-23T00:21:28;11.80;99.90
8539;DHT22;4307;53.868;11.680;2023-03-23T00:24:01;11.60;99.90
8539;DHT22;4307;53.868;11.680;2023-03-23T00:26:28;11.50;99.90
8539;DHT22;4307;53.868;11.680;2023-03-23T00:28:55;11.40;99.90
8539;DHT22;4307;53.868;11.680;2023-03-23T00:31:22;11.20;99.90
8539;DHT22;4307;53.868;11.680;2023-03-23T00:33:48;11.10;99.90
8539;DHT22;4307;53.868;11.680;2023-03-23T00:36:15;11.00;99.90
8539;DHT22;4307;53.868;11.680;2023-03-23T00:38:44;10.90;99.90
8539;DHT22;4307;53.868;11.680;2023-03-23T00:41:12;10.90;99.90
8539;DHT22;4307;53.868;11.680;2023-03-23T00:43:40;10.80;99.90
8539;DHT22;4307;53.868;11.680;2023-03-23T00:46:07;10.80;99.90
8539;DHT22;4307;53.868;11.680;2023-03-23T00:48:36;10.80;99.90
8539;DHT22;4307;53.868;11.680;2023-03-23T00:51:06;10.70;99.90
8539;DHT22;4307;53.868;11.680;2023-03-23T00:53:37;10.70;99.90
8539;DHT22;4307;53.868;11.680;2023-03-23T00:56:07;10.70;99.90
8539;DHT22;4307;53.868;11.680;2023-03-23T00:58:34;10.70;99.90
8539;DHT22;4307;53.868;11.680;2023-03-23T01:01:01;10.60;99.90
8539;DHT22;4307;53.868;11.680;2023-03-23T01:03:28;10.60;99.90
8539;DHT22;4307;53.868;11.680;2023-03-23T01:05:55;10.60;99.90
8539;DHT22;4307;53.868;11.680;2023-03-23T01:08:23;10.60;99.90
8539;DHT22;4307;53.868;11.680;2023-03-23T01:10:50;10.50;99.90
8539;DHT22;4307;53.868;11.680;2023-03-23T01:13:20;10.60;99.90
8539;DHT22;4307;53.868;11.680;2023-03-23T01:15:48;10.50;99.90
8539;DHT22;4307;53.868;11.680;2023-03-23T01:18:14;10.50;99.90
8539;DHT22;4307;53.868;11.680;2023-03-23T01:20:41;10.50;99.90
8539;DHT22;4307;53.868;11.680;2023-03-23T01:23:08;10.50;99.90
8539;DHT22;4307;53.868;11.680;2023-03-23T01:25:36;10.50;99.90
8539;DHT22;4307;53.868;11.680;2023-03-23T01:28:03;10.50;99.90
8539;DHT22;4307;53.868;11.680;2023-03-23T01:30:31;10.50;99.90
8539;DHT22;4307;53.868;11.680;2023-03-23T01:32:58;10.50;99.90
8539;DHT22;4307;53.868;11.680;2023-03-23T01:35:24;10.40;99.90
8539;DHT22;4307;53.868;11.680;2023-03-23T01:37:51;10.40;99.90
8539;DHT22;4307;53.868;11.680;2023-03-23T01:40:18;10.40;99.90
8539;DHT22;4307;53.868;11.680;2023-03-23T01:42:45;10.40;99.90
8539;DHT22;4307;53.868;11.680;2023-03-23T01:45:25;10.40;99.90
8539;DHT22;4307;53.868;11.680;2023-03-23T01:47:58;10.40;99.90
8539;DHT22;4307;53.868;11.680;2023-03-23T01:50:27;10.40;99.90
8539;DHT22;4307;53.868;11.680;2023-03-23T01:52:56;10.30;99.90
8539;DHT22;4307;53.868;11.680;2023-03-23T01:55:25;10.30;99.90
8539;DHT22;4307;53.868;11.680;2023-03-23T01:57:54;10.30;99.90
8539;DHT22;4307;53.868;11.680;2023-03-23T02:00:21;10.30;99.90
8539;DHT22;4307;53.868;11.680;2023-03-23T02:02:49;10.30;99.90
8539;DHT22;4307;53.868;11.680;2023-03-23T02:05:24;10.30;99.90
8539;DHT22;4307;53.868;11.680;2023-03-23T02:07:53;10.30;99.90
8539;DHT22;4307;53.868;11.680;2023-03-23T02:10:20;10.30;99.90
8539;DHT22;4307;53.868;11.680;2023-03-23T02:12:47;10.30;99.90
8539;DHT22;4307;53.868;11.680;2023-03-23T02:15:14;10.30;99.90
8539;DHT22;4307;53.868;11.680;2023-03-23T02:17:46;10.30;99.90
8539;DHT22;4307;53.868;11.680;2023-03-23T02:20:37;10.30;99.90
8539;DHT22;4307;53.868;11.680;2023-03-23T02:23:17;10.30;99.90
8539;DHT22;4307;53.868;11.680;2023-03-23T02:26:02;10.30;99.90
8539;DHT22;4307;53.868;11.680;2023-03-23T02:29:02;10.30;99.90
8539;DHT22;4307;53.868;11.680;2023-03-23T02:31:43;10.30;99.90
8539;DHT22;4307;53.868;11.680;2023-03-23T02:34:17;10.30;99.90
8539;DHT22;4307;53.868;11.680;2023-03-23T02:36:48;10.30;99.90
8539;DHT22;4307;53.868;11.680;2023-03-23T02:39:19;10.30;99.90
8539;DHT22;4307;53.868;11.680;2023-03-23T02:41:50;10.30;99.90
8539;DHT22;4307;53.868;11.680;2023-03-23T02:44:19;10.30;99.90
8539;DHT22;4307;53.868;11.680;2023-03-23T02:46:46;10.30;99.90
8539;DHT22;4307;53.868;11.680;2023-03-23T02:49:16;10.30;99.90
8539;DHT22;4307;53.868;11.680;2023-03-23T02:51:45;10.30;99.90
8539;DHT22;4307;53.868;11.680;2023-03-23T02:54:13;10.30;99.90
8539;DHT22;4307;53.868;11.680;2023-03-23T02:56:41;10.30;99.90
8539;DHT22;4307;53.868;11.680;2023-03-23T02:59:09;10.30;99.90
8539;DHT22;4307;53.868;11.680;2023-03-23T03:01:51;10.30;99.90
8539;DHT22;4307;53.868;11.680;2023-03-23T03:04:22;10.40;99.90
8539;DHT22;4307;53.868;11.680;2023-03-23T03:09:52;10.40;99.90
8539;DHT22;4307;53.868;11.680;2023-03-23T03:12:26;10.30;99.90
8539;DHT22;4307;53.868;11.680;2023-03-23T03:15:01;10.30;99.90
8539;DHT22;4307;53.868;11.680;2023-03-23T03:17:35;10.30;99.90
8539;DHT22;4307;53.868;11.680;2023-03-23T03:20:07;10.40;99.90
8539;DHT22;4307;53.868;11.680;2023-03-23T03:22:38;10.30;99.90
8539;DHT22;4307;53.868;11.680;2023-03-23T03:25:08;10.30;99.90
8539;DHT22;4307;53.868;11.680;2023-03-23T03:27:38;10.30;99.90
8539;DHT22;4307;53.868;11.680;2023-03-23T03:30:09;10.30;99.90
8539;DHT22;4307;53.868;11.680;2023-03-23T03:32:43;10.30;99.90
8539;DHT22;4307;53.868;11.680;2023-03-23T03:35:13;10.30;99.90
8539;DHT22;4307;53.868;11.680;2023-03-23T03:37:41;10.40;99.90
8539;DHT22;4307;53.868;11.680;2023-03-23T03:40:10;10.30;99.90
8539;DHT22;4307;53.868;11.680;2023-03-23T03:42:38;10.30;99.90
8539;DHT22;4307;53.868;11.680;2023-03-23T03:45:06;10.30;99.90
8539;DHT22;4307;53.868;11.680;2023-03-23T03:47:33;10.40;99.90
8539;DHT22;4307;53.868;11.680;2023-03-23T03:50:00;10.40;99.90
8539;DHT22;4307;53.868;11.680;2023-03-23T03:52:28;10.40;99.90
8539;DHT22;4307;53.868;11.680;2023-03-23T03:54:55;10.40;99.90
8539;DHT22;4307;53.868;11.680;2023-03-23T03:57:22;10.40;99.90
8539;DHT22;4307;53.868;11.680;2023-03-23T03:59:48;10.40;99.90
8539;DHT22;4307;53.868;11.680;2023-03-23T04:02:16;10.40;99.90
8539;DHT22;4307;53.868;11.680;2023-03-23T04:04:45;10.40;99.90
8539;DHT22;4307;53.868;11.680;2023-03-23T04:07:12;10.40;99.90
8539;DHT22;4307;53.868;11.680;2023-03-23T04:09:40;10.40;99.90
8539;DHT22;4307;53.868;11.680;2023-03-23T04:12:08;10.40;99.90
8539;DHT22;4307;53.868;11.680;2023-03-23T04:14:35;10.50;99.90
8539;DHT22;4307;53.868;11.680;2023-03-23T04:17:02;10.40;99.90
8539;DHT22;4307;53.868;11.680;2023-03-23T04:19:28;10.50;99.90
8539;DHT22;4307;53.868;11.680;2023-03-23T04:21:58;10.50;99.90
8539;DHT22;4307;53.868;11.680;2023-03-23T04:24:25;10.50;99.90
8539;DHT22;4307;53.868;11.680;2023-03-23T04:26:54;10.50;99.90
8539;DHT22;4307;53.868;11.680;2023-03-23T04:29:21;10.50;99.90
8539;DHT22;4307;53.868;11.680;2023-03-23T04:31:48;10.50;99.90
8539;DHT22;4307;53.868;11.680;2023-03-23T04:34:18;10.50;99.90
8539;DHT22;4307;53.868;11.680;2023-03-23T04:36:45;10.50;99.90
8539;DHT22;4307;53.868;11.680;2023-03-23T04:39:12;10.50;99.90
8539;DHT22;4307;53.868;11.680;2023-03-23T04:41:41;10.50;99.90
8539;DHT22;4307;53.868;11.680;2023-03-23T04:44:11;10.50;99.90
8539;DHT22;4307;53.868;11.680;2023-03-23T04:46:43;10.60;99.90
8539;DHT22;4307;53.868;11.680;2023-03-23T04:49:15;10.50;99.90
8539;DHT22;4307;53.868;11.680;2023-03-23T04:51:46;10.50;99.90
8539;DHT22;4307;53.868;11.680;2023-03-23T04:54:13;10.60;99.90
8539;DHT22;4307;53.868;11.680;2023-03-23T04:56:40;10.60;99.90
8539;DHT22;4307;53.868;11.680;2023-03-23T04:59:07;10.60;99.90
8539;DHT22;4307;53.868;11.680;2023-03-23T05:01:35;10.60;99.90
8539;DHT22;4307;53.868;11.680;2023-03-23T05:04:04;10.60;99.90
8539;DHT22;4307;53.868;11.680;2023-03-23T05:06:30;10.60;99.90
8539;DHT22;4307;53.868;11.680;2023-03-23T05:08:57;10.60;99.90
8539;DHT22;4307;53.868;11.680;2023-03-23T05:11:24;10.60;99.90
8539;DHT22;4307;53.868;11.680;2023-03-23T05:13:51;10.60;99.90
8539;DHT22;4307;53.868;11.680;2023-03-23T05:16:18;10.60;99.90
8539;DHT22;4307;53.868;11.680;2023-03-23T05:18:46;10.60;99.90
8539;DHT22;4307;53.868;11.680;2023-03-23T05:21:13;10.70;99.90
8539;DHT22;4307;53.868;11.680;2023-03-23T05:23:40;10.70;99.90
8539;DHT22;4307;53.868;11.680;2023-03-23T05:26:07;10.70;99.90
8539;DHT22;4307;53.868;11.680;2023-03-23T05:28:34;10.70;99.90
8539;DHT22;4307;53.868;11.680;2023-03-23T05:31:01;10.70;99.90
8539;DHT22;4307;53.868;11.680;2023-03-23T05:33:28;10.70;99.90
8539;DHT22;4307;53.868;11.680;2023-03-23T05:35:56;10.70;99.90
8539;DHT22;4307;53.868;11.680;2023-03-23T05:38:23;10.70;99.90
8539;DHT22;4307;53.868;11.680;2023-03-23T05:40:49;10.70;99.90
8539;DHT22;4307;53.868;11.680;2023-03-23T05:43:17;10.70;99.90
8539;DHT22;4307;53.868;11.680;2023-03-23T05:45:44;10.70;99.90
8539;DHT22;4307;53.868;11.680;2023-03-23T05:48:11;10.70;99.90
8539;DHT22;4307;53.868;11.680;2023-03-23T05:50:37;10.80;99.90
8539;DHT22;4307;53.868;11.680;2023-03-23T05:53:05;10.80;99.90
8539;DHT22;4307;53.868;11.680;2023-03-23T05:55:32;10.80;99.90
8539;DHT22;4307;53.868;11.680;2023-03-23T05:57:59;10.80;99.90
8539;DHT22;4307;53.868;11.680;2023-03-23T06:00:25;10.80;99.90
8539;DHT22;4307;53.868;11.680;2023-03-23T06:02:55;10.80;99.90
8539;DHT22;4307;53.868;11.680;2023-03-23T06:05:23;10.80;99.90
8539;DHT22;4307;53.868;11.680;2023-03-23T06:07:51;10.80;99.90
8539;DHT22;4307;53.868;11.680;2023-03-23T06:10:19;10.80;99.90
8539;DHT22;4307;53.868;11.680;2023-03-23T06:12:46;10.90;99.90
8539;DHT22;4307;53.868;11.680;2023-03-23T06:15:13;10.90;99.90
8539;DHT22;4307;53.868;11.680;2023-03-23T06:17:40;10.90;99.90
8539;DHT22;4307;53.868;11.680;2023-03-23T06:20:07;10.90;99.90
8539;DHT22;4307;53.868;11.680;2023-03-23T06:22:35;10.90;99.90
8539;DHT22;4307;53.868;11.680;2023-03-23T06:25:03;10.90;99.90
8539;DHT22;4307;53.868;11.680;2023-03-23T06:27:32;10.90;99.90
8539;DHT22;4307;53.868;11.680;2023-03-23T06:29:58;10.90;99.90
8539;DHT22;4307;53.868;11.680;2023-03-23T06:32:27;10.90;99.90
8539;DHT22;4307;53.868;11.680;2023-03-23T06:34:54;11.00;99.90
8539;DHT22;4307;53.868;11.680;2023-03-23T06:37:22;11.00;99.90
8539;DHT22;4307;53.868;11.680;2023-03-23T06:39:49;11.00;99.90
8539;DHT22;4307;53.868;11.680;2023-03-23T06:42:17;11.00;99.90
8539;DHT22;4307;53.868;11.680;2023-03-23T06:44:45;11.00;99.90
8539;DHT22;4307;53.868;11.680;2023-03-23T06:47:11;11.00;99.90
8539;DHT22;4307;53.868;11.680;2023-03-23T06:49:38;11.10;99.90
8539;DHT22;4307;53.868;11.680;2023-03-23T06:52:05;11.10;99.90
8539;DHT22;4307;53.868;11.680;2023-03-23T06:54:32;11.20;99.90
8539;DHT22;4307;53.868;11.680;2023-03-23T06:56:58;11.10;99.90
8539;DHT22;4307;53.868;11.680;2023-03-23T06:59:26;11.20;99.90
8539;DHT22;4307;53.868;11.680;2023-03-23T07:01:54;11.20;99.90
8539;DHT22;4307;53.868;11.680;2023-03-23T07:04:21;11.20;99.90
8539;DHT22;4307;53.868;11.680;2023-03-23T07:06:49;11.30;99.90
8539;DHT22;4307;53.868;11.680;2023-03-23T07:09:15;11.30;99.90
8539;DHT22;4307;53.868;11.680;2023-03-23T07:11:42;11.30;99.90
8539;DHT22;4307;53.868;11.680;2023-03-23T07:14:09;11.30;99.90
8539;DHT22;4307;53.868;11.680;2023-03-23T07:16:36;11.40;99.90
8539;DHT22;4307;53.868;11.680;2023-03-23T07:19:04;11.40;99.90
8539;DHT22;4307;53.868;11.680;2023-03-23T07:21:30;11.40;99.90
8539;DHT22;4307;53.868;11.680;2023-03-23T07:23:57;11.40;99.90
8539;DHT22;4307;53.868;11.680;2023-03-23T07:26:24;11.50;99.90
8539;DHT22;4307;53.868;11.680;2023-03-23T07:28:50;11.50;99.90
8539;DHT22;4307;53.868;11.680;2023-03-23T07:31:17;11.60;99.90
8539;DHT22;4307;53.868;11.680;2023-03-23T07:33:44;11.60;99.90
8539;DHT22;4307;53.868;11.680;2023-03-23T07:36:12;11.60;99.90
8539;DHT22;4307;53.868;11.680;2023-03-23T07:38:38;11.60;99.90
8539;DHT22;4307;53.868;11.680;2023-03-23T07:41:06;11.70;99.90
8539;DHT22;4307;53.868;11.680;2023-03-23T07:43:32;11.70;99.90
8539;DHT22;4307;53.868;11.680;2023-03-23T07:45:59;11.70;99.90
8539;DHT22;4307;53.868;11.680;2023-03-23T07:48:26;11.70;99.90
8539;DHT22;4307;53.868;11.680;2023-03-23T07:50:52;11.80;99.90
8539;DHT22;4307;53.868;11.680;2023-03-23T07:53:20;11.90;99.90
8539;DHT22;4307;53.868;11.680;2023-03-23T07:55:48;11.90;99.90
8539;DHT22;4307;53.868;11.680;2023-03-23T07:58:15;12.00;99.90
8539;DHT22;4307;53.868;11.680;2023-03-23T08:00:44;12.10;99.90
8539;DHT22;4307;53.868;11.680;2023-03-23T08:03:11;12.20;99.90
8539;DHT22;4307;53.868;11.680;2023-03-23T08:05:38;12.30;99.90
8539;DHT22;4307;53.868;11.680;2023-03-23T08:08:08;12.30;99.90
8539;DHT22;4307;53.868;11.680;2023-03-23T08:10:36;12.30;99.90
8539;DHT22;4307;53.868;11.680;2023-03-23T08:13:03;12.30;99.90
8539;DHT22;4307;53.868;11.680;2023-03-23T08:15:31;12.30;99.90
8539;DHT22;4307;53.868;11.680;2023-03-23T08:18:03;12.30;99.90
8539;DHT22;4307;53.868;11.680;2023-03-23T08:20:30;12.40;99.90
8539;DHT22;4307;53.868;11.680;2023-03-23T08:22:58;12.40;99.90
8539;DHT22;4307;53.868;11.680;2023-03-23T08:25:25;12.40;99.90
8539;DHT22;4307;53.868;11.680;2023-03-23T08:27:54;12.50;99.90
8539;DHT22;4307;53.868;11.680;2023-03-23T08:30:21;12.40;99.90
8539;DHT22;4307;53.868;11.680;2023-03-23T08:32:54;12.50;99.90
8539;DHT22;4307;53.868;11.680;2023-03-23T08:38:09;12.60;99.90
8539;DHT22;4307;53.868;11.680;2023-03-23T08:40:37;12.60;99.90
8539;DHT22;4307;53.868;11.680;2023-03-23T08:43:06;12.70;99.90
8539;DHT22;4307;53.868;11.680;2023-03-23T08:45:32;12.70;99.90
8539;DHT22;4307;53.868;11.680;2023-03-23T08:47:59;12.80;99.90
8539;DHT22;4307;53.868;11.680;2023-03-23T08:50:27;12.80;99.90
8539;DHT22;4307;53.868;11.680;2023-03-23T08:52:56;12.90;99.90
8539;DHT22;4307;53.868;11.680;2023-03-23T08:55:23;13.00;99.90
8539;DHT22;4307;53.868;11.680;2023-03-23T08:57:51;13.10;99.90
8539;DHT22;4307;53.868;11.680;2023-03-23T09:00:22;13.20;99.90
8539;DHT22;4307;53.868;11.680;2023-03-23T09:02:54;13.30;99.90
8539;DHT22;4307;53.868;11.680;2023-03-23T09:05:24;13.40;99.90
8539;DHT22;4307;53.868;11.680;2023-03-23T09:07:53;13.40;99.90
8539;DHT22;4307;53.868;11.680;2023-03-23T09:10:24;13.40;99.90
8539;DHT22;4307;53.868;11.680;2023-03-23T09:12:52;13.40;99.90
8539;DHT22;4307;53.868;11.680;2023-03-23T09:15:21;13.30;99.90
8539;DHT22;4307;53.868;11.680;2023-03-23T09:17:51;13.40;99.90
8539;DHT22;4307;53.868;11.680;2023-03-23T09:20:21;13.30;99.90
8539;DHT22;4307;53.868;11.680;2023-03-23T09:22:49;13.30;99.90
8539;DHT22;4307;53.868;11.680;2023-03-23T09:25:18;13.40;99.90
8539;DHT22;4307;53.868;11.680;2023-03-23T09:27:49;13.40;99.90
8539;DHT22;4307;53.868;11.680;2023-03-23T09:30:20;13.50;99.90
8539;DHT22;4307;53.868;11.680;2023-03-23T09:32:47;13.50;99.90
8539;DHT22;4307;53.868;11.680;2023-03-23T09:35:15;13.50;99.90
8539;DHT22;4307;53.868;11.680;2023-03-23T09:37:43;13.50;99.90
8539;DHT22;4307;53.868;11.680;2023-03-23T09:40:15;13.50;99.90
8539;DHT22;4307;53.868;11.680;2023-03-23T09:43:00;13.50;99.90
8539;DHT22;4307;53.868;11.680;2023-03-23T09:45:36;13.40;99.90
8539;DHT22;4307;53.868;11.680;2023-03-23T09:48:27;13.40;99.90
8539;DHT22;4307;53.868;11.680;2023-03-23T09:51:04;13.20;99.90
8539;DHT22;4307;53.868;11.680;2023-03-23T09:53:42;13.00;99.90
8539;DHT22;4307;53.868;11.680;2023-03-23T09:56:15;12.70;99.90
8539;DHT22;4307;53.868;11.680;2023-03-23T09:58:47;12.40;99.90
8539;DHT22;4307;53.868;11.680;2023-03-23T10:01:21;12.20;99.90
8539;DHT22;4307;53.868;11.680;2023-03-23T10:03:49;11.90;99.90
8539;DHT22;4307;53.868;11.680;2023-03-23T10:06:19;11.70;99.90
8539;DHT22;4307;53.868;11.680;2023-03-23T10:08:47;11.60;99.90
8539;DHT22;4307;53.868;11.680;2023-03-23T10:11:19;11.50;99.90
8539;DHT22;4307;53.868;11.680;2023-03-23T10:13:58;11.40;99.90
8539;DHT22;4307;53.868;11.680;2023-03-23T10:16:31;11.40;99.90
8539;DHT22;4307;53.868;11.680;2023-03-23T10:19:07;11.50;99.90
8539;DHT22;4307;53.868;11.680;2023-03-23T10:21:40;11.60;99.90
8539;DHT22;4307;53.868;11.680;2023-03-23T10:24:09;11.70;99.90
8539;DHT22;4307;53.868;11.680;2023-03-23T10:26:46;11.80;99.90
8539;DHT22;4307;53.868;11.680;2023-03-23T10:29:17;12.00;99.90
8539;DHT22;4307;53.868;11.680;2023-03-23T10:31:49;12.20;99.90
8539;DHT22;4307;53.868;11.680;2023-03-23T10:34:20;12.50;99.90
8539;DHT22;4307;53.868;11.680;2023-03-23T10:36:56;12.70;99.90
8539;DHT22;4307;53.868;11.680;2023-03-23T10:39:29;12.80;99.90
8539;DHT22;4307;53.868;11.680;2023-03-23T10:41:57;13.10;99.90
8539;DHT22;4307;53.868;11.680;2023-03-23T10:44:32;13.20;99.90
8539;DHT22;4307;53.868;11.680;2023-03-23T10:47:02;13.40;99.90
8539;DHT22;4307;53.868;11.680;2023-03-23T10:49:34;13.40;99.90
8539;DHT22;4307;53.868;11.680;2023-03-23T10:52:10;13.50;99.90
8539;DHT22;4307;53.868;11.680;2023-03-23T10:54:45;13.60;99.90
8539;DHT22;4307;53.868;11.680;2023-03-23T10:57:24;13.70;99.90
8539;DHT22;4307;53.868;11.680;2023-03-23T10:59:58;13.90;99.90
8539;DHT22;4307;53.868;11.680;2023-03-23T11:02:26;14.00;99.90
8539;DHT22;4307;53.868;11.680;2023-03-23T11:04:56;14.20;99.90
8539;DHT22;4307;53.868;11.680;2023-03-23T11:07:29;14.50;99.90
8539;DHT22;4307;53.868;11.680;2023-03-23T11:10:11;14.70;99.90
8539;DHT22;4307;53.868;11.680;2023-03-23T11:12:44;14.80;99.90
8539;DHT22;4307;53.868;11.680;2023-03-23T11:15:30;14.90;99.90
8539;DHT22;4307;53.868;11.680;2023-03-23T11:18:04;15.00;99.90
8539;DHT22;4307;53.868;11.680;2023-03-23T11:20:35;15.00;99.90
8539;DHT22;4307;53.868;11.680;2023-03-23T11:23:09;15.00;99.90
8539;DHT22;4307;53.868;11.680;2023-03-23T11:25:51;14.90;99.90
8539;DHT22;4307;53.868;11.680;2023-03-23T11:28:19;15.00;99.90
8539;DHT22;4307;53.868;11.680;2023-03-23T11:30:46;15.20;99.90
8539;DHT22;4307;53.868;11.680;2023-03-23T11:33:14;15.30;99.90
8539;DHT22;4307;53.868;11.680;2023-03-23T11:35:44;15.30;99.90
8539;DHT22;4307;53.868;11.680;2023-03-23T11:38:17;15.30;99.90
8539;DHT22;4307;53.868;11.680;2023-03-23T11:40:49;15.30;99.90
8539;DHT22;4307;53.868;11.680;2023-03-23T11:43:19;15.30;99.90
8539;DHT22;4307;53.868;11.680;2023-03-23T11:45:50;15.30;99.90
8539;DHT22;4307;53.868;11.680;2023-03-23T11:48:22;15.50;99.90
8539;DHT22;4307;53.868;11.680;2023-03-23T11:50:53;15.70;99.90
8539;DHT22;4307;53.868;11.680;2023-03-23T11:53:27;15.70;99.90
8539;DHT22;4307;53.868;11.680;2023-03-23T11:56:06;15.60;99.90
8539;DHT22;4307;53.868;11.680;2023-03-23T11:58:34;15.40;99.90
8539;DHT22;4307;53.868;11.680;2023-03-23T12:01:05;15.30;99.90
8539;DHT22;4307;53.868;11.680;2023-03-23T12:03:55;15.20;99.90
8539;DHT22;4307;53.868;11.680;2023-03-23T12:06:30;15.20;99.90
8539;DHT22;4307;53.868;11.680;2023-03-23T12:09:07;15.20;99.90
8539;DHT22;4307;53.868;11.680;2023-03-23T12:11:40;15.00;99.90
8539;DHT22;4307;53.868;11.680;2023-03-23T12:14:16;15.00;99.90
8539;DHT22;4307;53.868;11.680;2023-03-23T12:17:02;15.00;99.90
8539;DHT22;4307;53.868;11.680;2023-03-23T12:19:42;15.00;99.90
8539;DHT22;4307;53.868;11.680;2023-03-23T12:22:24;15.10;99.90
8539;DHT22;4307;53.868;11.680;2023-03-23T12:25:12;15.00;99.90
8539;DHT22;4307;53.868;11.680;2023-03-23T12:27:45;15.00;99.90
8539;DHT22;4307;53.868;11.680;2023-03-23T12:30:24;15.00;99.90
8539;DHT22;4307;53.868;11.680;2023-03-23T12:33:07;14.90;99.90
8539;DHT22;4307;53.868;11.680;2023-03-23T12:35:46;14.80;99.90
8539;DHT22;4307;53.868;11.680;2023-03-23T12:41:15;14.70;99.90
8539;DHT22;4307;53.868;11.680;2023-03-23T12:43:48;14.70;99.90
8539;DHT22;4307;53.868;11.680;2023-03-23T12:49:22;14.80;99.90
8539;DHT22;4307;53.868;11.680;2023-03-23T12:51:59;14.80;99.90
8539;DHT22;4307;53.868;11.680;2023-03-23T12:54:31;14.80;99.90
8539;DHT22;4307;53.868;11.680;2023-03-23T12:57:02;14.90;99.90
8539;DHT22;4307;53.868;11.680;2023-03-23T12:59:36;14.90;99.90
8539;DHT22;4307;53.868;11.680;2023-03-23T13:02:10;15.10;99.90
8539;DHT22;4307;53.868;11.680;2023-03-23T13:04:41;15.20;99.90
8539;DHT22;4307;53.868;11.680;2023-03-23T13:07:14;15.20;99.90
8539;DHT22;4307;53.868;11.680;2023-03-23T13:09:50;15.10;99.90
8539;DHT22;4307;53.868;11.680;2023-03-23T13:12:19;15.00;99.90
8539;DHT22;4307;53.868;11.680;2023-03-23T13:14:56;14.90;99.90
8539;DHT22;4307;53.868;11.680;2023-03-23T13:17:33;14.90;99.90
8539;DHT22;4307;53.868;11.680;2023-03-23T13:20:18;14.80;99.90
8539;DHT22;4307;53.868;11.680;2023-03-23T13:22:55;14.80;99.90
8539;DHT22;4307;53.868;11.680;2023-03-23T13:25:44;14.90;99.90
8539;DHT22;4307;53.868;11.680;2023-03-23T13:28:15;14.90;99.90
8539;DHT22;4307;53.868;11.680;2023-03-23T13:30:57;14.90;99.90
8539;DHT22;4307;53.868;11.680;2023-03-23T13:33:29;14.90;99.90
8539;DHT22;4307;53.868;11.680;2023-03-23T13:36:08;14.90;99.90
8539;DHT22;4307;53.868;11.680;2023-03-23T13:38:37;14.90;99.90
8539;DHT22;4307;53.868;11.680;2023-03-23T13:41:07;14.90;99.90
8539;DHT22;4307;53.868;11.680;2023-03-23T13:43:36;14.80;99.90
8539;DHT22;4307;53.868;11.680;2023-03-23T13:46:11;14.70;99.90
8539;DHT22;4307;53.868;11.680;2023-03-23T13:48:46;14.70;99.90
8539;DHT22;4307;53.868;11.680;2023-03-23T13:51:32;14.50;99.90
8539;DHT22;4307;53.868;11.680;2023-03-23T13:54:25;14.50;99.90
8539;DHT22;4307;53.868;11.680;2023-03-23T13:56:57;14.40;99.90
8539;DHT22;4307;53.868;11.680;2023-03-23T13:59:47;14.30;99.90
8539;DHT22;4307;53.868;11.680;2023-03-23T14:02:36;14.20;99.90
8539;DHT22;4307;53.868;11.680;2023-03-23T14:05:26;14.20;99.90
8539;DHT22;4307;53.868;11.680;2023-03-23T14:07:56;14.10;99.90
8539;DHT22;4307;53.868;11.680;2023-03-23T14:10:32;14.00;99.90
8539;DHT22;4307;53.868;11.680;2023-03-23T14:13:00;14.00;99.90
8539;DHT22;4307;53.868;11.680;2023-03-23T14:15:29;13.90;99.90
8539;DHT22;4307;53.868;11.680;2023-03-23T14:17:56;13.90;99.90
8539;DHT22;4307;53.868;11.680;2023-03-23T14:20:27;14.10;99.90
8539;DHT22;4307;53.868;11.680;2023-03-23T14:22:57;14.70;99.90
8539;DHT22;4307;53.868;11.680;2023-03-23T14:25:30;15.30;99.90
8539;DHT22;4307;53.868;11.680;2023-03-23T14:27:57;15.60;99.90
8539;DHT22;4307;53.868;11.680;2023-03-23T14:30:25;15.80;99.90
8539;DHT22;4307;53.868;11.680;2023-03-23T14:32:54;15.80;99.90
8539;DHT22;4307;53.868;11.680;2023-03-23T14:35:31;15.70;99.90
8539;DHT22;4307;53.868;11.680;2023-03-23T14:37:58;15.50;99.90
8539;DHT22;4307;53.868;11.680;2023-03-23T14:40:28;15.30;99.90
8539;DHT22;4307;53.868;11.680;2023-03-23T14:42:56;15.00;99.90
8539;DHT22;4307;53.868;11.680;2023-03-23T14:45:24;14.80;99.90
8539;DHT22;4307;53.868;11.680;2023-03-23T14:47:53;14.70;99.90
8539;DHT22;4307;53.868;11.680;2023-03-23T14:50:25;14.50;99.90
8539;DHT22;4307;53.868;11.680;2023-03-23T14:52:57;14.40;99.90
8539;DHT22;4307;53.868;11.680;2023-03-23T14:55:24;14.40;99.90
8539;DHT22;4307;53.868;11.680;2023-03-23T14:57:55;14.40;99.90
8539;DHT22;4307;53.868;11.680;2023-03-23T15:00:25;14.40;99.90
8539;DHT22;4307;53.868;11.680;2023-03-23T15:02:56;14.40;99.90
8539;DHT22;4307;53.868;11.680;2023-03-23T15:05:28;14.40;99.90
8539;DHT22;4307;53.868;11.680;2023-03-23T15:07:59;14.40;99.90
8539;DHT22;4307;53.868;11.680;2023-03-23T15:10:27;14.40;99.90
8539;DHT22;4307;53.868;11.680;2023-03-23T15:12:55;14.40;99.90
8539;DHT22;4307;53.868;11.680;2023-03-23T15:15:26;14.30;99.90
8539;DHT22;4307;53.868;11.680;2023-03-23T15:17:53;14.20;99.90
8539;DHT22;4307;53.868;11.680;2023-03-23T15:20:23;14.10;99.90
8539;DHT22;4307;53.868;11.680;2023-03-23T15:22:50;14.10;99.90
8539;DHT22;4307;53.868;11.680;2023-03-23T15:25:19;14.10;99.90
8539;DHT22;4307;53.868;11.680;2023-03-23T15:27:50;14.10;99.90
8539;DHT22;4307;53.868;11.680;2023-03-23T15:30:31;14.10;99.90
8539;DHT22;4307;53.868;11.680;2023-03-23T15:33:03;14.10;99.90
8539;DHT22;4307;53.868;11.680;2023-03-23T15:35:35;14.10;99.90
8539;DHT22;4307;53.868;11.680;2023-03-23T15:38:03;14.00;99.90
8539;DHT22;4307;53.868;11.680;2023-03-23T15:40:34;14.00;99.90
8539;DHT22;4307;53.868;11.680;2023-03-23T15:43:07;13.90;99.90
8539;DHT22;4307;53.868;11.680;2023-03-23T15:45:35;13.90;99.90
8539;DHT22;4307;53.868;11.680;2023-03-23T15:48:11;13.70;99.90
8539;DHT22;4307;53.868;11.680;2023-03-23T15:50:40;13.40;99.90
8539;DHT22;4307;53.868;11.680;2023-03-23T15:53:19;12.90;99.90
8539;DHT22;4307;53.868;11.680;2023-03-23T15:55:49;12.60;99.90
8539;DHT22;4307;53.868;11.680;2023-03-23T15:58:15;12.30;99.90
8539;DHT22;4307;53.868;11.680;2023-03-23T16:00:44;12.10;99.90
8539;DHT22;4307;53.868;11.680;2023-03-23T16:03:14;11.90;99.90
8539;DHT22;4307;53.868;11.680;2023-03-23T16:05:41;11.80;99.90
8539;DHT22;4307;53.868;11.680;2023-03-23T16:08:10;11.60;99.90
8539;DHT22;4307;53.868;11.680;2023-03-23T16:10:37;11.50;99.90
8539;DHT22;4307;53.868;11.680;2023-03-23T16:13:04;11.50;99.90
8539;DHT22;4307;53.868;11.680;2023-03-23T16:15:31;11.40;99.90
8539;DHT22;4307;53.868;11.680;2023-03-23T16:17:59;11.30;99.90